Terminal Aerodrome Forecast
Issued by NWS Salt Lake City, UT

Home | Current Version | Previous Version | Text Only | Print | Product List | Glossary On
Versions: 1 2 3 4 5 6 7 8 9 10 11 12 13 14 15 16 17 18 19 20 21 22 23 24 25 26 27 28 29 30 31 32 33 34 35 36 37 38 39 40 41 42 43 44 45 46 47 48 49 50
000
FTUS45 KSLC 131732
TAFSLC
TAF
KSLC 131732Z 1318/1424 01003KT 2SM BR OVC005
     FM131900 33006KT 3SM BR BKN006 BKN150
     FM132100 33006KT 4SM BR BCFG BKN008 BKN120
     FM140700 33004KT 2SM BR PRFG OVC004=

USA.gov is the U.S. government's official web portal to all federal, state and local government web resources and services.